Time;durP1;ratioP1;P1;durP2;ratioP2;P2;SDS_P1;SDS_P2;PMS_P1;PMS_P2;Temp;Humidity;BMP_temperature;BMP_pressure;BME280_temperature;BME280_humidity;BME280_pressure;Samples;Min_cycle;Max_cycle;Signal;HPM_P1;HPM_P2
2022/11/27 00:00:01;;;;;;;2.63;2.63;;;17.40;72.40;;;;;;5128250;27;44030;-69
2022/11/27 00:02:39;;;;;;;2.40;2.40;;;17.40;72.40;;;;;;5121644;27;43499;-69
2022/11/27 00:05:09;;;;;;;2.50;2.50;;;17.40;72.60;;;;;;5122506;27;43477;-69
2022/11/27 00:07:37;;;;;;;2.77;2.70;;;17.40;72.80;;;;;;5125903;27;43853;-68
2022/11/27 00:10:06;;;;;;;3.00;2.90;;;17.40;73.10;;;;;;5130746;27;43369;-68
2022/11/27 00:12:35;;;;;;;2.70;2.60;;;17.50;72.90;;;;;;5126477;27;43398;-68
2022/11/27 00:15:03;;;;;;;2.70;2.60;;;17.50;72.50;;;;;;5123456;27;43448;-69
2022/11/27 00:17:31;;;;;;;2.53;2.53;;;17.50;72.20;;;;;;5124782;27;43591;-70
2022/11/27 00:19:59;;;;;;;2.90;2.80;;;17.50;72.20;;;;;;5127269;27;43424;-69
2022/11/27 00:22:28;;;;;;;2.90;2.80;;;17.40;72.30;;;;;;5129846;27;43431;-67
2022/11/27 00:24:56;;;;;;;2.57;2.57;;;17.40;72.60;;;;;;5131425;27;43738;-67
2022/11/27 00:27:24;;;;;;;2.63;2.60;;;17.50;72.50;;;;;;5113962;27;45576;-69
2022/11/27 00:29:53;;;;;;;2.43;2.43;;;17.50;72.40;;;;;;5128116;27;43377;-69
2022/11/27 00:32:21;;;;;;;2.67;2.60;;;17.40;73.00;;;;;;5113975;27;43390;-67
2022/11/27 00:34:48;;;;;;;2.50;2.50;;;17.40;72.40;;;;;;5129087;27;43465;-68
2022/11/27 00:37:16;;;;;;;2.57;2.57;;;17.40;72.50;;;;;;5116491;27;43599;-68
2022/11/27 00:39:47;;;;;;;2.40;2.40;;;17.40;72.90;;;;;;5123845;27;43452;-68
2022/11/27 00:42:14;;;;;;;2.37;2.37;;;17.50;72.80;;;;;;5115951;27;44009;-69
2022/11/27 00:44:43;;;;;;;2.80;2.70;;;17.60;72.40;;;;;;5117226;27;43435;-68
2022/11/27 00:47:10;;;;;;;2.80;2.70;;;17.60;72.00;;;;;;5112586;27;45431;-68
2022/11/27 00:49:38;;;;;;;2.70;2.60;;;17.60;71.70;;;;;;5117670;27;43452;-68
2022/11/27 00:52:06;;;;;;;2.60;2.50;;;17.60;71.70;;;;;;5117229;27;43982;-69
2022/11/27 00:54:34;;;;;;;2.30;2.30;;;17.60;72.10;;;;;;5115850;27;43513;-69
2022/11/27 00:57:04;;;;;;;2.60;2.50;;;17.60;72.10;;;;;;5115058;27;43617;-67
2022/11/27 00:59:32;;;;;;;2.20;2.20;;;17.50;71.90;;;;;;5126346;27;43441;-68
2022/11/27 01:02:00;;;;;;;2.33;2.33;;;17.50;71.90;;;;;;5125570;27;43431;-68
2022/11/27 01:04:29;;;;;;;2.40;2.40;;;17.50;72.20;;;;;;5124826;27;43565;-68
2022/11/27 01:06:57;;;;;;;2.23;2.23;;;17.50;72.30;;;;;;5120317;27;43796;-69
2022/11/27 01:09:24;;;;;;;2.70;2.70;;;17.40;72.70;;;;;;5120216;27;44634;-68
2022/11/27 01:11:52;;;;;;;2.43;2.43;;;17.40;72.60;;;;;;5126448;27;43567;-69
2022/11/27 01:14:22;;;;;;;2.50;2.50;;;17.40;72.50;;;;;;5125869;27;44173;-71
2022/11/27 01:16:49;;;;;;;2.20;2.20;;;17.40;72.40;;;;;;5129569;27;43855;-69
2022/11/27 01:19:18;;;;;;;2.40;2.40;;;17.40;72.50;;;;;;5127048;27;43428;-68
2022/11/27 01:21:46;;;;;;;2.53;2.53;;;17.30;72.50;;;;;;5125940;27;44510;-69
2022/11/27 01:24:14;;;;;;;2.50;2.50;;;17.30;72.90;;;;;;5128499;27;43339;-68
2022/11/27 01:26:42;;;;;;;2.87;2.80;;;17.30;72.80;;;;;;5106182;27;43884;-67
2022/11/27 01:29:11;;;;;;;2.57;2.47;;;17.40;72.70;;;;;;5123618;27;43999;-68
2022/11/27 01:31:40;;;;;;;2.30;2.30;;;17.40;72.70;;;;;;5121383;27;43286;-69
2022/11/27 01:34:11;;;;;;;2.50;2.50;;;17.30;72.50;;;;;;5129902;27;44267;-68
2022/11/27 01:36:39;;;;;;;2.33;2.33;;;17.30;72.60;;;;;;5119264;27;43896;-68
2022/11/27 01:39:07;;;;;;;2.23;2.20;;;17.30;72.90;;;;;;5126488;27;43444;-67
2022/11/27 01:41:36;;;;;;;2.40;2.40;;;17.30;73.00;;;;;;5119362;27;43403;-70
2022/11/27 01:44:19;;;;;;;2.53;2.53;;;17.50;72.90;;;;;;5133645;27;43349;-68
2022/11/27 01:46:49;;;;;;;2.57;2.57;;;17.60;72.40;;;;;;5128435;27;43594;-69
2022/11/27 01:49:24;;;;;;;2.77;2.67;;;17.60;72.00;;;;;;5131632;27;44337;-69
2022/11/27 01:51:54;;;;;;;2.70;2.60;;;17.60;71.80;;;;;;5123076;27;43466;-68
2022/11/27 01:54:24;;;;;;;2.60;2.60;;;17.60;71.90;;;;;;5126439;27;43460;-68
2022/11/27 01:56:55;;;;;;;2.67;2.57;;;17.60;72.20;;;;;;5124597;27;46074;-68
2022/11/27 01:59:24;;;;;;;2.60;2.60;;;17.60;72.00;;;;;;5131393;27;43432;-68
2022/11/27 02:01:54;;;;;;;2.70;2.60;;;17.60;72.00;;;;;;5123061;27;43397;-71
2022/11/27 02:04:22;;;;;;;2.50;2.50;;;17.50;72.00;;;;;;5115203;27;43575;-70
2022/11/27 02:06:50;;;;;;;2.30;2.30;;;17.50;72.20;;;;;;5125537;27;43846;-69
2022/11/27 02:09:17;;;;;;;2.10;2.10;;;17.40;72.30;;;;;;5119220;27;44290;-72
2022/11/27 02:11:50;;;;;;;2.47;2.37;;;17.40;72.70;;;;;;5126712;27;43422;-70
2022/11/27 02:14:22;;;;;;;2.33;2.33;;;17.40;72.50;;;;;;5110754;27;43419;-70
2022/11/27 02:16:53;;;;;;;1.97;1.97;;;17.40;72.40;;;;;;5107594;27;43931;-70
2022/11/27 02:19:26;;;;;;;2.27;2.27;;;17.40;72.50;;;;;;5118008;27;44109;-70
2022/11/27 02:21:56;;;;;;;2.40;2.40;;;17.30;72.50;;;;;;5116320;27;44029;-70
2022/11/27 02:24:33;;;;;;;2.30;2.30;;;17.30;72.60;;;;;;5120162;27;43456;-71
2022/11/27 02:27:12;;;;;;;2.73;2.63;;;17.30;72.90;;;;;;5116102;27;46097;-71
2022/11/27 02:29:41;;;;;;;2.60;2.60;;;17.30;72.70;;;;;;5120802;27;43578;-71
2022/11/27 02:32:11;;;;;;;2.13;2.13;;;17.30;72.60;;;;;;5111894;27;44375;-72
2022/11/27 02:34:43;;;;;;;2.23;2.23;;;17.30;72.50;;;;;;5124524;27;43366;-72
2022/11/27 02:37:13;;;;;;;2.27;2.27;;;17.30;72.60;;;;;;5105280;27;43922;-70
2022/11/27 02:39:43;;;;;;;2.30;2.30;;;17.30;72.70;;;;;;5120209;27;44810;-70
2022/11/27 02:42:12;;;;;;;2.50;2.40;;;17.30;73.00;;;;;;5121446;27;43373;-71
2022/11/27 02:44:46;;;;;;;2.33;2.33;;;17.40;72.90;;;;;;5124030;27;43470;-71
2022/11/27 02:47:14;;;;;;;2.60;2.50;;;17.50;72.40;;;;;;5117158;27;43917;-70
2022/11/27 02:49:42;;;;;;;2.40;2.40;;;17.60;72.10;;;;;;5116170;27;44154;-72
2022/11/27 02:52:11;;;;;;;2.30;2.30;;;17.60;71.90;;;;;;5113033;27;43408;-72
2022/11/27 02:54:39;;;;;;;2.50;2.50;;;17.50;71.80;;;;;;5116625;27;44127;-69
2022/11/27 02:57:07;;;;;;;2.40;2.40;;;17.50;72.30;;;;;;5124546;27;43688;-71
2022/11/27 02:59:35;;;;;;;2.67;2.60;;;17.50;72.10;;;;;;5116019;27;44862;-70
2022/11/27 03:02:10;;;;;;;2.27;2.27;;;17.50;72.10;;;;;;5122512;27;43450;-70
2022/11/27 03:04:42;;;;;;;2.20;2.20;;;17.50;72.10;;;;;;5116254;27;43377;-71
2022/11/27 03:07:12;;;;;;;2.20;2.20;;;17.40;72.20;;;;;;5108942;27;46482;-71
2022/11/27 03:09:42;;;;;;;2.23;2.23;;;17.40;72.40;;;;;;5121961;27;44172;-70
2022/11/27 03:12:10;;;;;;;2.20;2.20;;;17.30;72.70;;;;;;5115695;27;43514;-71
2022/11/27 03:14:41;;;;;;;1.87;1.87;;;17.30;72.50;;;;;;5122329;27;43899;-69
2022/11/27 03:17:16;;;;;;;2.20;2.20;;;17.40;72.60;;;;;;5125970;27;43743;-70
2022/11/27 03:19:48;;;;;;;2.10;2.10;;;17.30;72.50;;;;;;5118241;27;43445;-70
2022/11/27 03:22:15;;;;;;;2.10;2.10;;;17.30;72.50;;;;;;5114629;27;43404;-70
2022/11/27 03:24:43;;;;;;;2.40;2.40;;;17.30;72.60;;;;;;5116935;27;43509;-70
2022/11/27 03:27:12;;;;;;;2.23;2.23;;;17.30;73.00;;;;;;5120468;27;43660;-71
2022/11/27 03:29:43;;;;;;;2.17;2.17;;;17.40;73.00;;;;;;5121279;27;44715;-71
2022/11/27 03:32:12;;;;;;;2.17;2.17;;;17.50;72.50;;;;;;5107878;27;43952;-70
2022/11/27 03:34:40;;;;;;;2.10;2.10;;;17.60;72.20;;;;;;5117082;27;43439;-73
2022/11/27 03:37:08;;;;;;;1.90;1.90;;;17.60;71.90;;;;;;5114324;27;43618;-70
2022/11/27 03:39:36;;;;;;;2.13;2.13;;;17.50;71.80;;;;;;5120520;27;43914;-71
2022/11/27 03:42:09;;;;;;;2.20;2.20;;;17.50;72.20;;;;;;5119766;27;43915;-70
2022/11/27 03:44:41;;;;;;;2.13;2.13;;;17.50;72.20;;;;;;5123811;27;43788;-71
2022/11/27 03:47:15;;;;;;;2.30;2.30;;;17.50;72.10;;;;;;5121670;27;43657;-70
2022/11/27 03:49:52;;;;;;;2.00;2.00;;;17.50;72.10;;;;;;5121934;27;43578;-70
2022/11/27 03:52:22;;;;;;;2.23;2.23;;;17.40;72.10;;;;;;5114824;27;43405;-70
2022/11/27 03:54:56;;;;;;;2.17;2.17;;;17.40;72.30;;;;;;5126107;27;44036;-71
2022/11/27 03:57:28;;;;;;;2.10;2.10;;;17.30;72.50;;;;;;5112658;27;43765;-71
2022/11/27 03:59:56;;;;;;;2.20;2.10;;;17.40;72.80;;;;;;5119067;27;43413;-70
2022/11/27 04:02:30;;;;;;;2.20;2.20;;;17.40;72.50;;;;;;5113769;27;43408;-72
2022/11/27 04:04:58;;;;;;;2.30;2.30;;;17.50;72.40;;;;;;5114065;27;43362;-70
2022/11/27 04:07:26;;;;;;;2.10;2.10;;;17.40;72.10;;;;;;5122852;27;43912;-71
2022/11/27 04:09:54;;;;;;;2.20;2.20;;;17.40;72.20;;;;;;5118575;27;44646;-69
2022/11/27 04:12:22;;;;;;;2.17;2.17;;;17.40;72.40;;;;;;5124004;27;43407;-71
2022/11/27 04:14:50;;;;;;;2.10;2.10;;;17.40;72.70;;;;;;5117788;27;43455;-70
2022/11/27 04:17:18;;;;;;;2.30;2.30;;;17.40;72.60;;;;;;5114592;27;44069;-72
2022/11/27 04:19:47;;;;;;;2.30;2.30;;;17.30;72.40;;;;;;5124090;27;43394;-70
2022/11/27 04:22:15;;;;;;;2.27;2.20;;;17.30;72.50;;;;;;5116849;27;43607;-71
2022/11/27 04:24:43;;;;;;;2.60;2.40;;;17.30;72.60;;;;;;5118883;27;43426;-70
2022/11/27 04:27:11;;;;;;;4.03;3.40;;;17.30;72.80;;;;;;5118623;27;43843;-70
2022/11/27 04:29:39;;;;;;;5.73;3.70;;;17.20;73.10;;;;;;5117465;27;43482;-70
2022/11/27 04:32:06;;;;;;;5.37;3.77;;;17.30;73.00;;;;;;5111484;27;43457;-70
2022/11/27 04:34:34;;;;;;;6.77;4.40;;;17.40;72.60;;;;;;5118819;27;43436;-71
2022/11/27 04:37:04;;;;;;;6.23;4.30;;;17.50;72.30;;;;;;5106208;27;46049;-72
2022/11/27 04:39:32;;;;;;;8.17;4.47;;;17.50;72.10;;;;;;5120788;27;43419;-70
2022/11/27 04:41:59;;;;;;;6.40;4.40;;;17.50;72.00;;;;;;5113552;27;43432;-71
2022/11/27 04:44:27;;;;;;;9.57;5.80;;;17.50;72.50;;;;;;5121154;27;43514;-72
2022/11/27 04:46:55;;;;;;;9.53;5.43;;;17.40;72.30;;;;;;5119030;27;44523;-70
2022/11/27 04:49:23;;;;;;;10.77;5.50;;;17.40;72.20;;;;;;5119206;27;43385;-69
2022/11/27 04:51:51;;;;;;;6.90;5.20;;;17.40;72.10;;;;;;5108881;27;43433;-72
2022/11/27 04:54:21;;;;;;;6.67;4.70;;;17.40;72.30;;;;;;5121583;27;43516;-70
2022/11/27 04:56:48;;;;;;;11.77;5.83;;;17.40;72.40;;;;;;5113565;27;43937;-71
2022/11/27 04:59:16;;;;;;;15.50;6.60;;;17.30;72.60;;;;;;5115949;27;43427;-72
2022/11/27 05:01:44;;;;;;;11.77;5.93;;;17.30;72.60;;;;;;5113877;27;43414;-69
2022/11/27 05:04:12;;;;;;;11.93;5.90;;;17.30;72.50;;;;;;5118191;27;43448;-70
2022/11/27 05:06:40;;;;;;;12.80;6.40;;;17.30;72.40;;;;;;5111506;27;43878;-71
2022/11/27 05:09:08;;;;;;;10.40;6.07;;;17.30;72.40;;;;;;5123312;27;44177;-72
2022/11/27 05:11:37;;;;;;;12.93;6.60;;;17.30;72.50;;;;;;5113930;27;43592;-71
2022/11/27 05:14:15;;;;;;;13.03;7.10;;;17.30;72.80;;;;;;5122502;27;43472;-70
2022/11/27 05:16:44;;;;;;;13.97;7.50;;;17.30;72.90;;;;;;5119833;27;43615;-70
2022/11/27 05:19:13;;;;;;;11.93;6.80;;;17.50;72.60;;;;;;5118636;27;43425;-71
2022/11/27 05:21:41;;;;;;;13.87;6.83;;;17.50;72.20;;;;;;5126964;27;43402;-70
2022/11/27 05:24:09;;;;;;;10.97;6.37;;;17.50;71.90;;;;;;5120497;27;43586;-71
2022/11/27 05:26:38;;;;;;;15.07;7.67;;;17.50;71.80;;;;;;5121356;27;43769;-70
2022/11/27 05:29:06;;;;;;;15.47;7.43;;;17.50;72.20;;;;;;5121110;27;43465;-70
2022/11/27 05:31:34;;;;;;;16.93;8.10;;;17.50;72.20;;;;;;5116753;27;43373;-70
2022/11/27 05:34:02;;;;;;;16.13;7.63;;;17.50;72.00;;;;;;5121668;27;43449;-70
2022/11/27 05:36:30;;;;;;;12.27;6.57;;;17.50;72.00;;;;;;5108957;27;43936;-70
2022/11/27 05:38:59;;;;;;;12.23;6.97;;;17.40;72.00;;;;;;5121596;27;43445;-71
2022/11/27 05:41:27;;;;;;;13.63;7.57;;;17.40;72.10;;;;;;5115553;27;43918;-70
2022/11/27 05:43:56;;;;;;;16.67;8.03;;;17.40;72.40;;;;;;5126225;27;43569;-69
2022/11/27 05:46:24;;;;;;;12.47;6.57;;;17.40;72.70;;;;;;5116296;27;45885;-70
2022/11/27 05:48:52;;;;;;;14.73;7.10;;;17.30;72.40;;;;;;5118945;27;43717;-70
2022/11/27 05:51:20;;;;;;;11.23;6.77;;;17.30;72.30;;;;;;5110109;27;43804;-70
2022/11/27 05:53:48;;;;;;;12.50;6.93;;;17.30;72.30;;;;;;5119185;27;43447;-71
2022/11/27 05:56:17;;;;;;;12.10;7.43;;;17.30;72.50;;;;;;5119662;27;45798;-70
2022/11/27 05:58:46;;;;;;;13.57;7.40;;;17.30;72.80;;;;;;5117662;27;43445;-71
2022/11/27 06:01:16;;;;;;;16.87;8.07;;;17.30;72.90;;;;;;5124179;27;44053;-71
2022/11/27 06:03:44;;;;;;;16.60;7.57;;;17.40;72.70;;;;;;5116455;27;44964;-73
2022/11/27 06:06:13;;;;;;;15.10;7.97;;;17.50;72.30;;;;;;5119990;27;44054;-70
2022/11/27 06:08:41;;;;;;;14.13;7.33;;;17.50;72.00;;;;;;5117083;27;44724;-71
2022/11/27 06:11:09;;;;;;;13.17;7.17;;;17.50;71.80;;;;;;5114222;27;43600;-70
2022/11/27 06:13:37;;;;;;;13.07;7.83;;;17.50;71.90;;;;;;5118105;27;43403;-70
2022/11/27 06:16:06;;;;;;;12.67;7.17;;;17.50;72.30;;;;;;5119499;27;43942;-71
2022/11/27 06:18:36;;;;;;;15.47;7.90;;;17.40;72.00;;;;;;5124473;27;43441;-70
2022/11/27 06:21:06;;;;;;;12.67;6.80;;;17.50;72.00;;;;;;5117224;27;43421;-71
2022/11/27 06:23:34;;;;;;;13.77;7.10;;;17.40;72.70;;;;;;5110518;27;43425;-72
2022/11/27 06:26:13;;;;;;;12.07;6.87;;;17.40;72.00;;;;;;5112440;27;43605;-72
2022/11/27 06:28:41;;;;;;;14.90;8.17;;;17.40;72.30;;;;;;5123113;27;43460;-70
2022/11/27 06:31:09;;;;;;;16.93;8.20;;;17.30;72.70;;;;;;5117628;27;43899;-70
2022/11/27 06:33:45;;;;;;;12.00;7.20;;;17.30;72.50;;;;;;5113953;27;43541;-71
2022/11/27 06:36:13;;;;;;;11.60;7.30;;;17.30;72.30;;;;;;5112140;27;43760;-70
2022/11/27 06:38:41;;;;;;;10.67;6.97;;;17.30;72.30;;;;;;5118832;27;43389;-72
2022/11/27 06:41:11;;;;;;;13.10;7.80;;;17.30;72.40;;;;;;5119644;27;43477;-70
2022/11/27 06:43:39;;;;;;;12.33;7.67;;;17.30;72.50;;;;;;5116149;27;43426;-71
2022/11/27 06:46:07;;;;;;;12.30;7.93;;;17.30;72.80;;;;;;5122115;27;43940;-69
2022/11/27 06:48:35;;;;;;;10.93;7.13;;;17.30;73.50;;;;;;5115796;27;43395;-70
2022/11/27 06:51:06;;;;;;;13.40;7.13;;;17.40;72.40;;;;;;5108686;27;43832;-69
2022/11/27 06:53:35;;;;;;;11.43;7.30;;;17.50;72.10;;;;;;5123180;27;43457;-71
2022/11/27 06:56:03;;;;;;;10.83;6.83;;;17.60;71.90;;;;;;5114612;27;43660;-71
2022/11/27 06:58:31;;;;;;;12.17;7.83;;;17.50;71.80;;;;;;5107603;27;43404;-72
2022/11/27 07:00:59;;;;;;;12.73;7.17;;;17.50;72.10;;;;;;5120452;27;43789;-71
2022/11/27 07:03:27;;;;;;;11.70;6.97;;;17.50;72.90;;;;;;5112594;27;43419;-70
2022/11/27 07:05:55;;;;;;;12.47;7.03;;;17.50;72.10;;;;;;5119498;27;46077;-70
2022/11/27 07:08:24;;;;;;;8.97;6.63;;;17.40;71.90;;;;;;5118594;27;43468;-69
2022/11/27 07:10:52;;;;;;;12.07;7.20;;;17.40;72.00;;;;;;5116786;27;43413;-71
2022/11/27 07:13:20;;;;;;;11.13;7.10;;;17.40;72.20;;;;;;5124834;27;44444;-70
2022/11/27 07:15:48;;;;;;;12.83;7.40;;;17.30;72.40;;;;;;5107940;27;43586;-70
2022/11/27 07:18:16;;;;;;;11.77;6.60;;;17.30;72.50;;;;;;5117243;27;43961;-70
2022/11/27 07:20:50;;;;;;;9.17;6.60;;;17.30;72.50;;;;;;5119145;27;43362;-71
2022/11/27 07:23:24;;;;;;;10.13;6.63;;;17.30;72.40;;;;;;5123672;27;43474;-70
2022/11/27 07:25:52;;;;;;;9.80;6.47;;;17.30;72.50;;;;;;5110723;27;45642;-69
2022/11/27 07:28:20;;;;;;;10.97;6.87;;;17.30;72.50;;;;;;5100123;27;44473;-72
2022/11/27 07:30:54;;;;;;;11.50;7.17;;;17.30;72.80;;;;;;5107389;27;43579;-70
2022/11/27 07:33:22;;;;;;;11.53;7.07;;;17.30;72.90;;;;;;5117997;27;43407;-71
2022/11/27 07:35:50;;;;;;;10.93;7.03;;;17.40;72.70;;;;;;5113755;27;43942;-70
2022/11/27 07:38:18;;;;;;;8.40;6.40;;;17.50;72.30;;;;;;5116941;27;43584;-70
2022/11/27 07:40:47;;;;;;;10.63;6.70;;;17.50;72.00;;;;;;5126110;27;43967;-70
2022/11/27 07:43:15;;;;;;;9.60;6.87;;;17.50;71.90;;;;;;5114227;27;43524;-71
2022/11/27 07:45:43;;;;;;;9.73;6.80;;;17.40;72.00;;;;;;5115768;27;43986;-71
2022/11/27 07:48:11;;;;;;;12.30;7.50;;;17.50;72.40;;;;;;5116994;27;43511;-70
2022/11/27 07:50:39;;;;;;;9.83;6.37;;;17.50;72.20;;;;;;5114649;27;43940;-70
2022/11/27 07:53:07;;;;;;;9.43;6.23;;;17.40;72.00;;;;;;5113699;27;43434;-70
2022/11/27 07:55:37;;;;;;;8.47;6.00;;;17.40;72.10;;;;;;5118737;27;43754;-71
2022/11/27 07:58:07;;;;;;;11.07;6.43;;;17.40;72.20;;;;;;5117148;27;44620;-71
2022/11/27 08:00:35;;;;;;;7.83;6.57;;;17.30;72.30;;;;;;5111233;27;43442;-71
2022/11/27 08:03:03;;;;;;;8.87;6.37;;;17.30;72.60;;;;;;5117051;27;43417;-71
2022/11/27 08:05:33;;;;;;;8.53;6.10;;;17.30;72.40;;;;;;5106870;27;43910;-72
2022/11/27 08:08:03;;;;;;;9.20;6.23;;;17.30;72.30;;;;;;5124210;27;43899;-71
2022/11/27 08:10:31;;;;;;;9.93;6.63;;;17.30;72.30;;;;;;5105434;27;43489;-71
2022/11/27 08:12:59;;;;;;;9.27;6.23;;;17.30;72.40;;;;;;5116416;27;43451;-72
2022/11/27 08:15:28;;;;;;;7.90;6.03;;;17.30;72.60;;;;;;5116336;27;43856;-71
2022/11/27 08:17:56;;;;;;;7.93;5.87;;;17.20;72.80;;;;;;5117661;27;44599;-70
2022/11/27 08:20:24;;;;;;;7.10;5.97;;;17.30;72.70;;;;;;5106478;27;43428;-70
2022/11/27 08:22:52;;;;;;;8.83;6.13;;;17.30;72.70;;;;;;5119048;27;43589;-70
2022/11/27 08:25:26;;;;;;;8.30;6.37;;;17.30;72.60;;;;;;5108842;27;43605;-71
2022/11/27 08:27:54;;;;;;;7.10;5.80;;;17.20;72.60;;;;;;5114392;27;44736;-69
2022/11/27 08:30:22;;;;;;;8.77;6.20;;;17.20;72.70;;;;;;5114291;27;43437;-71
2022/11/27 08:32:51;;;;;;;6.70;5.87;;;17.20;73.00;;;;;;5119353;27;43504;-70
2022/11/27 08:35:21;;;;;;;7.87;5.73;;;17.30;73.00;;;;;;5102195;27;46126;-70
2022/11/27 08:37:49;;;;;;;8.73;6.43;;;17.40;72.60;;;;;;5113206;27;43454;-70
2022/11/27 08:40:17;;;;;;;9.10;6.13;;;17.50;72.20;;;;;;5119539;27;44018;-72
2022/11/27 08:42:45;;;;;;;8.73;6.17;;;17.60;71.80;;;;;;5108268;27;43460;-71
2022/11/27 08:45:13;;;;;;;7.17;6.23;;;17.50;72.00;;;;;;5120330;27;44061;-70
2022/11/27 08:47:42;;;;;;;6.27;5.67;;;17.50;72.00;;;;;;5099041;27;43447;-71
2022/11/27 08:50:11;;;;;;;7.63;5.73;;;17.50;71.90;;;;;;5118204;27;43485;-70
2022/11/27 08:52:39;;;;;;;7.27;5.90;;;17.50;71.90;;;;;;5116354;27;43927;-72
2022/11/27 08:55:08;;;;;;;6.10;5.47;;;17.50;71.90;;;;;;5120471;27;43834;-70
2022/11/27 08:57:36;;;;;;;7.87;5.67;;;17.40;72.00;;;;;;5115225;27;43523;-70
2022/11/27 09:00:07;;;;;;;7.53;6.17;;;17.40;72.10;;;;;;5109797;27;43400;-71
2022/11/27 09:02:34;;;;;;;7.30;5.87;;;17.30;72.30;;;;;;5114437;27;43525;-71
2022/11/27 09:05:05;;;;;;;7.57;6.13;;;17.30;72.50;;;;;;5122537;27;43950;-71
2022/11/27 09:07:34;;;;;;;6.77;5.33;;;17.30;72.30;;;;;;5111045;27;43867;-71
2022/11/27 09:10:02;;;;;;;6.70;5.30;;;17.30;72.30;;;;;;5124701;27;43830;-70
2022/11/27 09:12:30;;;;;;;6.13;5.53;;;17.30;72.40;;;;;;5122854;27;43417;-70
2022/11/27 09:14:58;;;;;;;6.67;5.90;;;17.30;72.50;;;;;;5125664;27;43966;-71
2022/11/27 09:17:26;;;;;;;5.53;5.00;;;17.20;72.60;;;;;;5121958;27;44018;-70
2022/11/27 09:19:54;;;;;;;6.30;5.67;;;17.20;72.90;;;;;;5119264;27;43415;-70
2022/11/27 09:22:22;;;;;;;7.33;5.70;;;17.20;72.60;;;;;;5120686;27;43613;-71
2022/11/27 09:24:51;;;;;;;5.87;5.23;;;17.20;72.60;;;;;;5120115;27;43804;-71
2022/11/27 09:27:19;;;;;;;7.43;5.77;;;17.20;72.60;;;;;;5114474;27;43410;-71
2022/11/27 09:29:48;;;;;;;5.80;5.27;;;17.20;72.70;;;;;;5117018;27;43485;-72
2022/11/27 09:32:16;;;;;;;6.37;5.73;;;17.20;72.70;;;;;;5117487;27;43446;-69
2022/11/27 09:34:44;;;;;;;5.60;5.03;;;17.20;73.10;;;;;;5119581;27;43814;-71
2022/11/27 09:37:12;;;;;;;5.83;5.23;;;17.30;73.00;;;;;;5118093;27;44300;-71
2022/11/27 09:39:40;;;;;;;6.20;5.23;;;17.40;72.60;;;;;;5120134;27;43508;-73
2022/11/27 09:42:12;;;;;;;5.77;5.00;;;17.50;72.10;;;;;;5106687;27;43555;-71
2022/11/27 09:44:44;;;;;;;6.47;5.87;;;17.50;71.80;;;;;;5124657;27;43775;-70
2022/11/27 09:47:15;;;;;;;5.50;5.00;;;17.50;71.60;;;;;;5119406;27;43435;-71
2022/11/27 09:49:45;;;;;;;5.87;5.23;;;17.50;72.00;;;;;;5103811;27;43401;-72
2022/11/27 09:52:17;;;;;;;7.10;5.43;;;17.50;71.90;;;;;;5103964;27;44512;-71
2022/11/27 09:54:49;;;;;;;5.63;5.13;;;17.50;71.80;;;;;;5114449;27;43592;-71
2022/11/27 09:57:24;;;;;;;5.87;5.37;;;17.50;71.90;;;;;;5122111;27;44689;-71
2022/11/27 09:59:52;;;;;;;5.53;5.03;;;17.40;71.90;;;;;;5118997;27;43460;-70
2022/11/27 10:02:24;;;;;;;7.07;5.67;;;17.40;72.80;;;;;;5112070;27;43718;-71
2022/11/27 10:04:52;;;;;;;6.70;5.77;;;17.30;72.50;;;;;;5120003;27;44997;-70
2022/11/27 10:07:46;;;;;;;5.77;5.20;;;17.30;72.30;;;;;;5117313;27;43400;-70
2022/11/27 10:10:28;;;;;;;6.50;5.07;;;17.30;72.30;;;;;;5111590;27;43424;-70
2022/11/27 10:13:00;;;;;;;5.93;5.10;;;17.30;72.40;;;;;;5111106;27;43527;-71
2022/11/27 10:15:32;;;;;;;5.27;4.87;;;17.30;72.50;;;;;;5125816;27;43985;-71
2022/11/27 10:18:02;;;;;;;5.40;4.90;;;17.20;72.60;;;;;;5117441;27;43445;-72
2022/11/27 10:20:34;;;;;;;5.83;5.23;;;17.20;72.90;;;;;;5116768;27;43503;-71
2022/11/27 10:23:05;;;;;;;5.33;4.90;;;17.20;72.60;;;;;;5113927;27;43956;-69
2022/11/27 10:25:34;;;;;;;5.17;4.87;;;17.20;72.60;;;;;;5119384;27;43614;-71
2022/11/27 10:28:13;;;;;;;5.33;4.83;;;17.20;72.60;;;;;;5116633;27;43387;-71
2022/11/27 10:30:45;;;;;;;5.37;4.97;;;17.20;72.70;;;;;;5113171;27;43503;-70
2022/11/27 10:33:17;;;;;;;5.40;4.97;;;17.20;72.70;;;;;;5120007;27;43469;-71
2022/11/27 10:35:46;;;;;;;5.57;5.07;;;17.20;73.10;;;;;;5105233;27;46076;-70
2022/11/27 10:38:17;;;;;;;5.70;5.20;;;17.20;73.00;;;;;;5116029;27;43410;-71
2022/11/27 10:40:46;;;;;;;5.17;4.67;;;17.40;72.70;;;;;;5122899;27;43947;-71
2022/11/27 10:43:18;;;;;;;5.47;5.00;;;17.50;72.20;;;;;;5122686;27;43620;-71
2022/11/27 10:45:47;;;;;;;5.50;5.00;;;17.50;71.80;;;;;;5122288;27;43602;-70
2022/11/27 10:48:15;;;;;;;5.90;5.00;;;17.50;71.70;;;;;;5114705;27;43916;-71
2022/11/27 10:50:44;;;;;;;6.23;5.27;;;17.40;72.00;;;;;;5116365;27;43433;-70
2022/11/27 10:53:16;;;;;;;4.70;4.30;;;17.40;72.00;;;;;;5103894;27;43448;-73
2022/11/27 10:56:13;;;;;;;5.43;5.03;;;17.50;71.90;;;;;;5108604;27;45747;-70
2022/11/27 10:58:44;;;;;;;5.63;5.13;;;17.40;71.90;;;;;;5115452;27;44049;-70
2022/11/27 11:01:15;;;;;;;5.37;4.87;;;17.40;72.00;;;;;;5110040;27;43581;-72
2022/11/27 11:03:43;;;;;;;5.20;4.83;;;17.30;72.00;;;;;;5112654;27;43451;-70
2022/11/27 11:06:15;;;;;;;4.67;4.37;;;17.30;72.50;;;;;;5114655;27;43616;-70
2022/11/27 11:08:59;;;;;;;4.70;4.30;;;17.30;72.30;;;;;;5113911;27;43448;-70
2022/11/27 11:11:28;;;;;;;4.80;4.37;;;17.30;72.20;;;;;;5117288;27;43384;-69
2022/11/27 11:13:57;;;;;;;5.13;4.80;;;17.30;72.30;;;;;;5115540;27;43517;-70
2022/11/27 11:16:29;;;;;;;4.63;4.33;;;17.30;72.40;;;;;;5116861;27;43980;-71
2022/11/27 11:19:02;;;;;;;4.77;4.37;;;17.30;73.20;;;;;;5120015;27;44940;-70
2022/11/27 11:21:31;;;;;;;5.17;4.67;;;17.20;72.80;;;;;;5117346;27;43448;-71
2022/11/27 11:24:00;;;;;;;4.70;4.40;;;17.30;72.90;;;;;;5117196;27;43792;-71
2022/11/27 11:26:29;;;;;;;5.03;4.63;;;17.40;72.60;;;;;;5114061;27;44124;-71
2022/11/27 11:28:59;;;;;;;4.53;4.20;;;17.50;72.00;;;;;;5120748;27;43883;-71
2022/11/27 11:31:29;;;;;;;4.80;4.50;;;17.50;71.60;;;;;;5115503;27;44032;-71
2022/11/27 11:33:58;;;;;;;4.53;4.30;;;17.50;71.70;;;;;;5108280;27;43491;-70
2022/11/27 11:36:26;;;;;;;7.60;4.87;;;17.40;72.10;;;;;;5110577;27;43933;-69
2022/11/27 11:38:54;;;;;;;4.80;4.47;;;17.50;72.10;;;;;;5116755;27;43374;-70
2022/11/27 11:41:23;;;;;;;4.37;4.10;;;17.40;71.80;;;;;;5116213;27;43866;-69
2022/11/27 11:44:00;;;;;;;4.60;4.30;;;17.40;71.90;;;;;;5119448;27;43438;-70
2022/11/27 11:46:29;;;;;;;4.50;4.20;;;17.40;72.10;;;;;;5118739;27;43524;-70
2022/11/27 11:48:59;;;;;;;5.07;4.57;;;17.40;72.20;;;;;;5115002;27;44684;-70
2022/11/27 11:51:46;;;;;;;4.47;3.93;;;17.30;72.30;;;;;;5118801;27;43452;-69
2022/11/27 11:54:24;;;;;;;4.23;4.03;;;17.30;72.60;;;;;;5116654;27;43477;-69
2022/11/27 11:56:52;;;;;;;4.10;3.80;;;17.30;72.40;;;;;;5116213;27;43896;-70
2022/11/27 11:59:25;;;;;;;4.03;3.83;;;17.30;72.30;;;;;;5112503;27;43496;-71
2022/11/27 12:02:06;;;;;;;4.50;4.10;;;17.30;72.30;;;;;;5113503;27;43435;-71
2022/11/27 12:04:53;;;;;;;4.30;4.00;;;17.30;72.40;;;;;;5112194;27;43585;-70
2022/11/27 12:07:26;;;;;;;4.40;4.10;;;17.20;72.70;;;;;;5099045;27;45671;-69
2022/11/27 12:09:57;;;;;;;3.83;3.63;;;17.20;72.50;;;;;;5102446;27;45350;-70
2022/11/27 12:12:33;;;;;;;3.97;3.77;;;17.30;72.40;;;;;;5097076;27;43471;-70
2022/11/27 12:15:04;;;;;;;4.40;4.20;;;17.30;72.20;;;;;;5100578;27;43444;-69
2022/11/27 12:17:42;;;;;;;4.23;3.93;;;17.20;71.90;;;;;;5093322;27;43847;-69
2022/11/27 12:20:18;;;;;;;4.50;4.20;;;17.20;72.10;;;;;;5111012;27;44087;-73
2022/11/27 12:23:30;;;;;;;4.57;4.27;;;17.20;71.90;;;;;;5114537;27;43449;-70
2022/11/27 12:26:03;;;;;;;4.90;4.50;;;17.30;71.70;;;;;;5105665;27;43515;-70
2022/11/27 12:28:43;;;;;;;4.57;4.17;;;17.40;71.10;;;;;;5105226;27;43923;-71
2022/11/27 12:31:17;;;;;;;4.73;3.87;;;17.40;70.70;;;;;;5113354;27;44055;-70
2022/11/27 12:33:55;;;;;;;4.30;4.00;;;17.50;70.90;;;;;;5115844;27;43529;-70
2022/11/27 12:36:26;;;;;;;3.70;3.50;;;17.50;70.90;;;;;;5107531;27;43571;-70
2022/11/27 12:39:03;;;;;;;4.00;3.70;;;17.40;71.10;;;;;;5120175;27;43966;-70
2022/11/27 12:41:46;;;;;;;4.07;3.77;;;17.40;70.90;;;;;;5095849;27;44760;-71
2022/11/27 12:44:17;;;;;;;3.63;3.43;;;17.40;71.10;;;;;;5104435;27;43487;-71
2022/11/27 12:46:51;;;;;;;4.10;3.90;;;17.40;71.30;;;;;;5102300;27;44187;-72
2022/11/27 12:49:20;;;;;;;4.37;4.17;;;17.30;71.40;;;;;;5106111;27;43786;-72
2022/11/27 12:51:49;;;;;;;4.37;3.80;;;17.30;71.50;;;;;;5107999;27;44314;-70
2022/11/27 12:54:20;;;;;;;4.60;4.20;;;17.20;71.60;;;;;;5116904;27;43428;-70
2022/11/27 12:56:50;;;;;;;4.70;3.97;;;17.20;71.50;;;;;;5090651;27;43482;-72
2022/11/27 12:59:20;;;;;;;4.73;3.57;;;17.30;71.60;;;;;;5099711;27;43875;-72